Time;durP1;ratioP1;P1;durP2;ratioP2;P2;SDS_P1;SDS_P2;PMS_P1;PMS_P2;Temp;Humidity;BMP_temperature;BMP_pressure;BME280_temperature;BME280_humidity;BME280_pressure;Samples;Min_cycle;Max_cycle;Signal;HPM_P1;HPM_P2
2022/08/23 00:01:56;;;;;;;13.82;5.88;;;17.50;99.90;;;;;;4942478;28;259728;-65
2022/08/23 00:04:29;;;;;;;14.50;6.20;;;17.40;99.90;;;;;;4941029;28;211216;-66
2022/08/23 00:06:56;;;;;;;13.77;6.68;;;17.40;99.90;;;;;;4949965;28;254719;-63
2022/08/23 00:09:24;;;;;;;11.40;5.75;;;17.40;99.90;;;;;;4929178;28;116064;-64
2022/08/23 00:12:15;;;;;;;14.57;6.10;;;17.30;99.90;;;;;;4940410;28;273060;-66
2022/08/23 00:14:45;;;;;;;11.27;5.32;;;17.30;99.90;;;;;;4955861;28;91361;-65
2022/08/23 00:17:12;;;;;;;15.98;6.32;;;17.30;99.90;;;;;;4959949;28;274988;-66
2022/08/23 00:19:38;;;;;;;14.35;6.43;;;17.30;99.90;;;;;;4925648;28;228539;-66
2022/08/23 00:22:05;;;;;;;14.15;6.15;;;17.20;99.90;;;;;;4957151;28;269598;-65
2022/08/23 00:24:32;;;;;;;17.58;5.85;;;17.20;99.90;;;;;;4926367;28;211320;-66
2022/08/23 00:27:06;;;;;;;13.75;5.65;;;17.20;99.90;;;;;;4964946;28;259025;-67
2022/08/23 00:29:46;;;;;;;13.23;5.97;;;17.10;99.90;;;;;;4927214;28;210873;-65
2022/08/23 00:32:15;;;;;;;11.80;5.75;;;17.10;99.90;;;;;;4965342;28;255030;-65
2022/08/23 00:34:42;;;;;;;15.00;6.00;;;17.10;99.90;;;;;;4945992;28;203894;-65
2022/08/23 00:37:09;;;;;;;14.48;6.20;;;17.10;99.90;;;;;;4961986;28;260796;-66
2022/08/23 00:39:36;;;;;;;11.68;5.55;;;17.00;99.90;;;;;;4955112;28;45479;-66
2022/08/23 00:48:28;;;;;;;13.35;6.90;;;16.90;99.90;;;;;;4858427;29;208918;-65
2022/08/23 00:51:21;;;;;;;11.52;6.15;;;16.90;99.90;;;;;;4926687;29;20288;-66
2022/08/23 00:53:55;;;;;;;13.65;5.95;;;16.90;99.90;;;;;;4855321;29;208132;-65
2022/08/23 00:56:24;;;;;;;11.70;5.95;;;16.90;99.90;;;;;;4903029;28;251481;-66
2022/08/23 00:58:50;;;;;;;14.65;6.13;;;16.90;99.90;;;;;;4874329;29;212256;-66
2022/08/23 01:01:17;;;;;;;15.65;6.47;;;16.80;99.90;;;;;;4883194;29;236636;-64
2022/08/23 01:03:48;;;;;;;11.68;5.68;;;16.80;99.90;;;;;;4874905;29;209330;-65
2022/08/23 01:06:25;;;;;;;13.35;6.28;;;16.80;99.90;;;;;;4905967;29;163193;-66
2022/08/23 01:08:58;;;;;;;11.63;5.82;;;16.80;99.90;;;;;;4873741;28;207108;-65
2022/08/23 01:11:43;;;;;;;13.57;5.90;;;16.70;99.90;;;;;;4909821;29;22685;-66
2022/08/23 01:14:31;;;;;;;13.80;6.57;;;16.70;99.90;;;;;;4884153;29;208858;-65
2022/08/23 01:17:06;;;;;;;11.55;5.85;;;16.70;99.90;;;;;;4910668;29;230019;-65
2022/08/23 01:19:39;;;;;;;10.40;4.93;;;16.60;99.90;;;;;;4882510;29;206449;-65
2022/08/23 01:22:24;;;;;;;10.77;5.55;;;16.60;99.90;;;;;;4937896;28;275161;-64
2022/08/23 01:24:51;;;;;;;11.77;5.68;;;16.50;99.90;;;;;;4931718;28;187343;-65
2022/08/23 01:27:17;;;;;;;13.80;6.00;;;16.50;99.90;;;;;;4960095;28;259516;-65
2022/08/23 01:29:43;;;;;;;12.88;6.53;;;16.50;99.90;;;;;;4937165;28;81909;-64
2022/08/23 01:32:11;;;;;;;9.98;6.32;;;16.50;99.90;;;;;;4957917;28;270368;-65
2022/08/23 01:34:37;;;;;;;12.15;6.03;;;16.50;99.90;;;;;;4943045;28;205666;-65
2022/08/23 01:37:07;;;;;;;12.55;6.18;;;16.50;99.90;;;;;;4959037;28;264908;-65
2022/08/23 01:39:34;;;;;;;10.02;5.68;;;16.40;99.90;;;;;;4921381;28;205827;-65
2022/08/23 01:42:01;;;;;;;10.73;5.95;;;16.40;99.90;;;;;;4959300;28;255030;-65
2022/08/23 01:44:27;;;;;;;10.82;5.40;;;16.40;99.90;;;;;;4939711;28;211557;-66
2022/08/23 01:46:53;;;;;;;10.60;5.35;;;16.40;99.90;;;;;;4959393;28;251753;-65
2022/08/23 01:49:19;;;;;;;12.40;5.95;;;16.30;99.90;;;;;;4941743;28;208429;-64
2022/08/23 01:51:46;;;;;;;12.27;5.90;;;16.30;99.90;;;;;;4959671;28;258439;-66
2022/08/23 01:54:12;;;;;;;11.30;6.32;;;16.30;99.90;;;;;;4946421;28;210300;-65
2022/08/23 01:56:40;;;;;;;13.35;6.53;;;16.30;99.90;;;;;;4959493;28;264707;-64
2022/08/23 01:59:09;;;;;;;12.95;6.65;;;16.30;99.90;;;;;;4910424;28;215767;-65
2022/08/23 02:01:36;;;;;;;11.32;5.25;;;16.20;99.90;;;;;;4935842;28;274530;-64
2022/08/23 02:04:04;;;;;;;12.10;6.32;;;16.20;99.90;;;;;;4944507;28;193319;-66
2022/08/23 02:06:30;;;;;;;11.73;6.60;;;16.20;99.90;;;;;;4959021;28;254559;-65
2022/08/23 02:09:03;;;;;;;10.90;6.38;;;16.20;99.90;;;;;;4939695;28;209762;-65
2022/08/23 02:11:35;;;;;;;11.65;6.10;;;16.20;99.90;;;;;;4956238;28;270104;-64
2022/08/23 02:14:09;;;;;;;12.32;6.30;;;16.20;99.90;;;;;;4938207;28;152902;-65
2022/08/23 02:16:38;;;;;;;12.98;6.30;;;16.20;99.90;;;;;;4954062;28;255271;-65
2022/08/23 02:19:08;;;;;;;11.30;5.93;;;16.10;99.90;;;;;;4938561;28;206976;-65
2022/08/23 02:21:35;;;;;;;9.65;5.80;;;16.10;99.90;;;;;;4951956;28;274385;-65
2022/08/23 02:24:10;;;;;;;10.45;5.80;;;16.10;99.90;;;;;;4930762;28;207850;-66
2022/08/23 02:26:40;;;;;;;15.50;7.70;;;16.00;99.90;;;;;;4953333;28;94463;-66
2022/08/23 02:29:06;;;;;;;13.13;7.15;;;16.00;99.90;;;;;;4935649;28;206583;-65
2022/08/23 02:31:33;;;;;;;14.35;6.88;;;16.00;99.90;;;;;;4960631;28;312869;-65
2022/08/23 02:34:00;;;;;;;14.77;7.80;;;16.00;99.90;;;;;;4935219;28;214403;-66
2022/08/23 02:36:27;;;;;;;12.50;7.10;;;16.00;99.90;;;;;;4958031;28;262225;-64
2022/08/23 02:38:54;;;;;;;13.38;7.00;;;16.00;99.90;;;;;;4943682;28;164603;-66
2022/08/23 02:41:21;;;;;;;11.30;6.65;;;15.90;99.90;;;;;;4956158;28;268459;-65
2022/08/23 02:43:51;;;;;;;12.05;6.82;;;15.90;99.90;;;;;;4943154;28;167520;-66
2022/08/23 02:46:18;;;;;;;11.57;6.82;;;15.90;99.90;;;;;;4962425;28;274481;-66
2022/08/23 02:48:44;;;;;;;15.60;7.50;;;15.90;99.90;;;;;;4940243;28;228903;-65
2022/08/23 02:51:10;;;;;;;13.15;6.80;;;15.90;99.90;;;;;;4958399;28;253542;-67
2022/08/23 02:53:37;;;;;;;13.52;7.25;;;15.80;99.90;;;;;;4937824;28;206547;-65
2022/08/23 02:56:03;;;;;;;15.32;8.48;;;15.80;99.90;;;;;;4948333;28;272068;-66
2022/08/23 02:58:29;;;;;;;14.90;7.03;;;15.80;99.90;;;;;;4935731;28;207774;-66
2022/08/23 03:00:56;;;;;;;13.10;7.53;;;15.80;99.90;;;;;;4954339;28;277054;-66
2022/08/23 03:03:22;;;;;;;16.30;7.45;;;15.80;99.90;;;;;;4924741;28;221206;-66
2022/08/23 03:05:49;;;;;;;13.25;7.28;;;15.70;99.90;;;;;;4978383;28;20053;-65
2022/08/23 03:08:16;;;;;;;14.73;7.22;;;15.70;99.90;;;;;;4922938;28;267416;-65
2022/08/23 03:10:44;;;;;;;12.40;6.90;;;15.70;99.90;;;;;;4969241;28;20424;-65
2022/08/23 03:13:10;;;;;;;14.75;7.53;;;15.70;99.90;;;;;;4911498;28;263431;-64
2022/08/23 03:15:38;;;;;;;12.35;6.75;;;15.70;99.90;;;;;;4975185;28;20386;-64
2022/08/23 03:18:04;;;;;;;12.57;6.90;;;15.60;99.90;;;;;;4918965;28;265114;-65
2022/08/23 03:20:31;;;;;;;11.98;8.00;;;15.60;99.90;;;;;;4978935;28;20058;-64
2022/08/23 03:22:58;;;;;;;11.67;6.33;;;15.60;99.90;;;;;;4914601;28;256496;-66
2022/08/23 03:25:25;;;;;;;12.32;6.20;;;15.60;99.90;;;;;;4968182;28;20582;-66
2022/08/23 03:27:51;;;;;;;10.80;6.40;;;15.50;99.90;;;;;;4938547;28;252302;-65
2022/08/23 03:30:17;;;;;;;11.40;6.10;;;15.50;99.90;;;;;;4961335;28;206057;-65
2022/08/23 03:32:43;;;;;;;9.55;5.50;;;15.50;99.90;;;;;;4960471;28;276147;-66
2022/08/23 03:35:09;;;;;;;11.20;5.70;;;15.50;99.90;;;;;;4933356;28;213869;-66
2022/08/23 03:37:36;;;;;;;12.80;6.72;;;15.50;99.90;;;;;;4962273;28;263392;-66
2022/08/23 03:40:06;;;;;;;11.77;5.97;;;15.50;99.90;;;;;;4941876;28;206276;-65
2022/08/23 03:42:32;;;;;;;12.40;7.15;;;15.40;99.90;;;;;;4950312;28;139909;-64
2022/08/23 03:44:58;;;;;;;12.80;6.85;;;15.40;99.90;;;;;;4926122;28;207082;-65
2022/08/23 03:47:24;;;;;;;11.63;6.50;;;15.40;99.90;;;;;;4958766;28;269504;-71
2022/08/23 03:49:50;;;;;;;14.38;7.40;;;15.40;99.90;;;;;;4924297;28;206587;-66
2022/08/23 03:52:16;;;;;;;15.23;7.38;;;15.40;99.90;;;;;;4950413;28;175487;-65
2022/08/23 03:54:42;;;;;;;13.10;8.00;;;15.40;99.90;;;;;;4921929;28;190900;-66
2022/08/23 03:57:09;;;;;;;13.95;7.53;;;15.40;99.90;;;;;;4951357;28;263386;-66
2022/08/23 03:59:37;;;;;;;12.52;7.25;;;15.30;99.90;;;;;;4944079;28;103154;-68
2022/08/23 04:02:04;;;;;;;15.43;7.13;;;15.30;99.90;;;;;;4929193;28;258675;-65
2022/08/23 04:04:31;;;;;;;13.60;7.70;;;15.30;99.90;;;;;;4933514;28;187043;-68
2022/08/23 04:06:57;;;;;;;14.80;8.25;;;15.30;99.90;;;;;;4955539;28;247808;-65
2022/08/23 04:09:23;;;;;;;14.13;8.18;;;15.20;99.90;;;;;;4943201;28;206188;-66
2022/08/23 04:11:51;;;;;;;13.70;7.75;;;15.20;99.90;;;;;;4955569;28;265986;-65
2022/08/23 04:14:17;;;;;;;12.63;7.38;;;15.20;99.90;;;;;;4925094;28;202098;-65
2022/08/23 04:16:43;;;;;;;12.90;7.63;;;15.20;99.90;;;;;;4961718;28;260333;-66
2022/08/23 04:19:12;;;;;;;12.02;7.45;;;15.20;99.90;;;;;;4945946;28;181999;-65
2022/08/23 04:21:41;;;;;;;11.73;7.63;;;15.20;99.90;;;;;;4950804;28;124232;-63
2022/08/23 04:24:08;;;;;;;12.57;8.15;;;15.20;99.90;;;;;;4934339;28;209374;-63
2022/08/23 04:26:34;;;;;;;12.20;8.20;;;15.20;99.90;;;;;;4952104;28;66609;-64
2022/08/23 04:29:00;;;;;;;13.80;9.07;;;15.30;99.90;;;;;;4937308;28;206239;-65
2022/08/23 04:31:27;;;;;;;15.30;9.38;;;15.20;99.90;;;;;;4937669;28;21589;-65
2022/08/23 04:33:55;;;;;;;14.60;9.27;;;15.30;99.90;;;;;;4932212;28;206079;-64
2022/08/23 04:36:22;;;;;;;13.90;8.75;;;15.30;99.90;;;;;;4953494;28;259568;-65
2022/08/23 04:38:48;;;;;;;14.23;8.57;;;15.30;99.90;;;;;;4938500;28;210036;-65
2022/08/23 04:44:00;;;;;;;11.07;7.25;;;15.30;99.90;;;;;;4935180;28;146361;-65
2022/08/23 04:46:26;;;;;;;12.70;7.22;;;15.30;99.90;;;;;;4952238;28;264876;-65
2022/08/23 04:48:53;;;;;;;12.27;7.03;;;15.30;99.90;;;;;;4937283;28;210895;-65
2022/08/23 04:51:21;;;;;;;12.60;7.30;;;15.30;99.90;;;;;;4950434;28;254091;-65
2022/08/23 04:53:47;;;;;;;13.85;7.60;;;15.30;99.90;;;;;;4938306;28;248106;-64
2022/08/23 04:56:13;;;;;;;14.80;8.63;;;15.30;99.90;;;;;;4958515;28;284625;-65
2022/08/23 04:58:40;;;;;;;14.02;7.70;;;15.30;99.90;;;;;;4948598;28;197906;-65
2022/08/23 05:01:09;;;;;;;13.48;7.55;;;15.30;99.90;;;;;;4944519;28;272321;-64
2022/08/23 05:03:36;;;;;;;13.73;7.68;;;15.30;99.90;;;;;;4939258;28;206409;-65
2022/08/23 05:06:03;;;;;;;10.93;6.85;;;15.40;99.90;;;;;;4940261;28;260675;-66
2022/08/23 05:08:30;;;;;;;12.48;7.60;;;15.40;99.90;;;;;;4942734;28;156910;-64
2022/08/23 05:11:01;;;;;;;12.35;6.70;;;15.40;99.90;;;;;;4966389;28;261433;-65
2022/08/23 05:13:28;;;;;;;13.10;8.13;;;15.40;99.90;;;;;;4934938;28;209826;-65
2022/08/23 05:15:55;;;;;;;13.20;7.70;;;15.40;99.90;;;;;;4971475;28;20051;-65
2022/08/23 05:18:21;;;;;;;13.95;7.25;;;15.50;99.90;;;;;;4913800;28;206436;-63
2022/08/23 05:20:47;;;;;;;12.75;8.23;;;15.50;99.90;;;;;;4978615;28;20054;-65
2022/08/23 05:23:13;;;;;;;13.57;8.75;;;15.50;99.90;;;;;;4917796;28;264180;-63
2022/08/23 05:25:49;;;;;;;16.10;11.57;;;15.60;99.90;;;;;;4947984;28;20047;-64
2022/08/23 05:28:17;;;;;;;13.82;10.68;;;15.60;99.90;;;;;;4901298;28;268974;-66
2022/08/23 05:30:44;;;;;;;16.70;10.95;;;15.70;99.90;;;;;;4968120;28;20691;-65
2022/08/23 05:33:11;;;;;;;19.77;12.93;;;15.70;99.90;;;;;;4893924;28;275449;-65
2022/08/23 05:35:39;;;;;;;21.98;14.80;;;15.80;99.90;;;;;;4961967;28;20063;-66
2022/08/23 05:38:05;;;;;;;22.50;15.83;;;15.90;99.90;;;;;;4903153;28;263304;-65
2022/08/23 05:40:31;;;;;;;24.55;17.67;;;15.90;99.90;;;;;;4978860;28;20055;-66
2022/08/23 05:42:57;;;;;;;20.92;16.00;;;16.10;99.90;;;;;;4912180;28;270579;-66
2022/08/23 05:45:23;;;;;;;22.48;14.50;;;16.20;99.90;;;;;;4988890;28;20127;-66
2022/08/23 05:47:49;;;;;;;19.55;13.68;;;16.30;99.90;;;;;;4952707;28;268672;-66
2022/08/23 05:50:15;;;;;;;21.60;13.45;;;16.30;99.90;;;;;;4932387;28;20112;-65
2022/08/23 05:52:41;;;;;;;22.58;13.77;;;16.40;99.90;;;;;;4958705;28;257984;-66
2022/08/23 05:55:08;;;;;;;18.80;12.25;;;16.50;99.90;;;;;;4923894;28;207842;-65
2022/08/23 05:57:36;;;;;;;20.05;14.68;;;16.50;99.90;;;;;;4959691;28;273510;-66
2022/08/23 06:00:11;;;;;;;18.75;14.63;;;16.70;99.90;;;;;;4938373;28;209440;-64
2022/08/23 06:02:37;;;;;;;17.83;13.15;;;16.80;99.90;;;;;;4945458;28;251955;-65
2022/08/23 06:05:04;;;;;;;19.48;11.95;;;16.80;99.90;;;;;;4925265;28;212261;-65
2022/08/23 06:07:33;;;;;;;17.80;11.82;;;16.90;99.90;;;;;;4955130;28;276328;-66
2022/08/23 06:09:59;;;;;;;18.75;10.88;;;17.00;99.90;;;;;;4941445;28;211743;-66
2022/08/23 06:12:25;;;;;;;17.25;11.18;;;17.10;99.90;;;;;;4958272;28;262272;-65
2022/08/23 06:14:51;;;;;;;16.20;10.48;;;17.20;99.90;;;;;;4919063;28;207148;-65
2022/08/23 06:17:17;;;;;;;16.02;10.30;;;17.30;99.90;;;;;;4954624;28;274804;-65
2022/08/23 06:19:44;;;;;;;16.25;10.43;;;17.40;99.90;;;;;;4926325;28;206638;-66
2022/08/23 06:22:10;;;;;;;16.90;9.27;;;17.60;99.90;;;;;;4956847;28;254813;-65
2022/08/23 06:24:36;;;;;;;18.15;10.95;;;17.90;99.90;;;;;;4937054;28;183435;-66
2022/08/23 06:27:02;;;;;;;16.60;10.07;;;18.30;99.90;;;;;;4959870;28;257622;-66
2022/08/23 06:29:28;;;;;;;16.27;9.15;;;18.70;99.90;;;;;;4940153;28;210761;-66
2022/08/23 06:31:55;;;;;;;15.23;8.25;;;19.10;99.90;;;;;;4963454;28;267053;-66
2022/08/23 06:34:34;;;;;;;15.10;7.78;;;19.50;99.90;;;;;;4937404;28;214986;-64
2022/08/23 06:37:04;;;;;;;12.95;7.18;;;19.80;99.90;;;;;;4955172;28;262344;-63
2022/08/23 06:39:31;;;;;;;15.00;6.90;;;20.20;99.90;;;;;;4940744;28;206783;-66
2022/08/23 06:42:16;;;;;;;13.07;6.07;;;20.40;99.90;;;;;;4957643;28;201332;-65
2022/08/23 06:44:43;;;;;;;12.07;6.55;;;20.80;99.90;;;;;;4933470;28;228703;-66
2022/08/23 06:47:09;;;;;;;13.23;6.20;;;21.10;99.90;;;;;;4960074;28;261202;-66
2022/08/23 06:49:35;;;;;;;12.93;5.70;;;21.30;99.90;;;;;;4931572;28;166468;-63
2022/08/23 06:52:05;;;;;;;15.65;5.72;;;21.50;99.90;;;;;;4960292;28;270281;-65
2022/08/23 06:54:33;;;;;;;10.40;5.65;;;21.70;99.90;;;;;;4953841;28;151105;-65
2022/08/23 06:57:01;;;;;;;14.43;5.47;;;22.00;99.90;;;;;;4957586;28;261059;-65
2022/08/23 06:59:27;;;;;;;10.85;5.03;;;22.20;99.90;;;;;;4922228;28;206510;-66
2022/08/23 07:01:59;;;;;;;12.65;5.28;;;22.40;99.90;;;;;;4934549;28;254085;-65
2022/08/23 07:04:31;;;;;;;11.75;4.93;;;22.60;99.90;;;;;;4919572;28;213293;-66
2022/08/23 07:07:00;;;;;;;11.60;5.53;;;22.80;99.90;;;;;;4951853;28;259836;-66
2022/08/23 07:09:27;;;;;;;13.00;4.90;;;23.10;99.90;;;;;;4935554;28;205493;-64
2022/08/23 07:11:54;;;;;;;11.63;5.05;;;23.30;99.90;;;;;;4954143;28;262443;-65
2022/08/23 07:14:21;;;;;;;10.57;4.25;;;23.50;99.90;;;;;;4932084;28;173705;-65
2022/08/23 07:16:51;;;;;;;18.38;4.70;;;23.70;99.90;;;;;;4954066;28;266181;-66
2022/08/23 07:19:20;;;;;;;13.10;4.07;;;23.90;99.90;;;;;;4947640;28;206532;-67
2022/08/23 07:21:47;;;;;;;11.48;4.57;;;24.20;99.90;;;;;;4953674;28;273553;-66
2022/08/23 07:24:14;;;;;;;10.77;4.57;;;24.40;99.90;;;;;;4931124;28;204640;-67
2022/08/23 07:26:44;;;;;;;13.88;4.53;;;24.70;99.90;;;;;;4954354;28;267901;-66
2022/08/23 07:29:11;;;;;;;8.95;3.50;;;24.80;99.90;;;;;;4938812;28;205522;-67
2022/08/23 07:31:46;;;;;;;8.50;3.58;;;24.90;99.90;;;;;;4962031;28;259597;-66
2022/08/23 07:34:13;;;;;;;10.48;3.63;;;25.20;99.90;;;;;;4928981;28;206178;-67
2022/08/23 07:36:42;;;;;;;12.55;4.15;;;25.50;99.90;;;;;;4941862;28;75884;-66
2022/08/23 07:39:09;;;;;;;11.80;4.22;;;25.50;99.90;;;;;;4948865;28;137742;-66
2022/08/23 07:41:37;;;;;;;11.05;3.75;;;25.30;99.60;;;;;;4956633;28;272302;-66
2022/08/23 07:44:07;;;;;;;9.50;3.42;;;25.40;99.50;;;;;;4937488;28;214363;-67
2022/08/23 07:46:36;;;;;;;11.18;3.92;;;25.70;99.20;;;;;;4961334;28;264391;-66
2022/08/23 07:49:03;;;;;;;11.80;3.80;;;25.90;98.60;;;;;;4945851;28;206783;-67
2022/08/23 07:51:32;;;;;;;11.55;2.97;;;26.00;98.40;;;;;;4961987;28;255680;-65
2022/08/23 07:54:00;;;;;;;9.90;3.35;;;25.90;98.00;;;;;;4913424;28;208994;-65
2022/08/23 07:56:26;;;;;;;9.55;3.15;;;25.80;98.00;;;;;;4962574;28;263110;-65
2022/08/23 07:58:52;;;;;;;8.98;3.60;;;25.70;97.80;;;;;;4931099;28;206846;-65
2022/08/23 08:01:22;;;;;;;10.18;3.20;;;25.70;97.60;;;;;;4927223;28;256574;-67
2022/08/23 08:03:51;;;;;;;;;;;25.80;97.50;;;;;;4929230;28;130315;-67
2022/08/23 08:06:24;;;;;;;12.57;3.78;;;25.80;97.20;;;;;;4947616;28;272527;-67
2022/08/23 08:08:52;;;;;;;11.63;3.90;;;25.70;97.90;;;;;;4932843;28;203309;-67
2022/08/23 08:11:20;;;;;;;10.18;3.25;;;25.60;97.70;;;;;;4960593;28;261551;-67
2022/08/23 08:13:47;;;;;;;9.82;3.35;;;25.60;97.70;;;;;;4932190;28;208252;-66
2022/08/23 08:16:22;;;;;;;11.95;3.75;;;25.80;97.40;;;;;;4955708;28;257019;-66
2022/08/23 08:18:49;;;;;;;10.07;3.40;;;25.80;97.10;;;;;;4936966;28;207019;-66
2022/08/23 08:21:17;;;;;;;9.38;3.20;;;26.00;97.40;;;;;;4957318;28;265131;-67
2022/08/23 08:23:43;;;;;;;9.20;3.08;;;26.50;97.70;;;;;;4941354;28;209028;-67
2022/08/23 08:26:10;;;;;;;13.20;3.55;;;26.90;97.00;;;;;;4960076;28;257057;-67
2022/08/23 08:28:37;;;;;;;9.70;3.45;;;27.30;96.40;;;;;;4947242;28;182200;-67
2022/08/23 08:31:04;;;;;;;14.25;3.50;;;27.30;95.60;;;;;;4963273;28;250830;-67
2022/08/23 08:33:31;;;;;;;10.63;3.13;;;27.40;95.40;;;;;;4942113;28;209463;-67
2022/08/23 08:35:58;;;;;;;10.35;3.25;;;27.70;95.20;;;;;;4958600;28;273430;-67
2022/08/23 08:38:24;;;;;;;10.80;3.03;;;28.00;95.10;;;;;;4940743;28;206671;-68
2022/08/23 08:41:14;;;;;;;10.57;3.10;;;28.40;94.80;;;;;;4978108;28;20050;-66
2022/08/23 08:44:01;;;;;;;10.63;3.13;;;28.80;92.70;;;;;;4910571;28;209157;-66
2022/08/23 08:46:45;;;;;;;9.75;2.85;;;29.10;93.80;;;;;;4956980;28;276444;-66
2022/08/23 08:49:55;;;;;;;10.32;2.75;;;29.50;93.10;;;;;;4939681;28;210627;-66
2022/08/23 08:52:24;;;;;;;;;;;29.40;92.10;;;;;;4955484;28;259746;-66
2022/08/23 08:54:57;;;;;;;8.88;2.80;;;29.10;91.60;;;;;;4944601;28;148822;-66
2022/08/23 08:57:24;;;;;;;8.05;2.72;;;29.00;91.80;;;;;;4957377;28;270247;-68
2022/08/23 09:00:04;;;;;;;10.30;3.10;;;28.90;91.30;;;;;;4926589;28;94691;-66
2022/08/23 09:02:34;;;;;;;11.63;3.03;;;28.80;90.10;;;;;;4945143;28;257990;-66
2022/08/23 09:05:02;;;;;;;;;;;29.00;90.60;;;;;;4921053;28;207348;-67
2022/08/23 09:07:40;;;;;;;10.75;3.17;;;29.30;90.10;;;;;;4960051;28;254527;-65
2022/08/23 09:10:29;;;;;;;12.85;3.20;;;29.50;90.00;;;;;;4924660;28;207843;-65
2022/08/23 09:13:18;;;;;;;10.75;3.00;;;29.80;87.50;;;;;;4922131;28;259278;-66
2022/08/23 09:15:44;;;;;;;10.13;2.30;;;30.40;89.90;;;;;;4975773;28;20058;-66
2022/08/23 09:18:14;;;;;;;9.43;2.80;;;31.20;90.20;;;;;;4926192;28;210618;-66
2022/08/23 09:20:43;;;;;;;8.70;2.60;;;31.60;85.40;;;;;;4983979;28;20051;-66
2022/08/23 09:23:19;;;;;;;11.10;2.60;;;31.70;83.40;;;;;;4924411;28;269548;-66
2022/08/23 09:26:01;;;;;;;11.43;2.65;;;31.60;76.80;;;;;;4979467;28;20055;-66
2022/08/23 09:28:32;;;;;;;10.20;2.65;;;31.50;77.40;;;;;;4924829;28;206917;-67
2022/08/23 09:30:59;;;;;;;11.27;2.75;;;31.40;78.90;;;;;;4962172;28;266955;-68
2022/08/23 09:33:35;;;;;;;9.75;2.40;;;31.50;77.60;;;;;;4939880;28;205441;-67
2022/08/23 09:36:14;;;;;;;9.82;2.85;;;31.60;77.60;;;;;;4958552;28;273823;-66
2022/08/23 09:38:54;;;;;;;9.02;3.30;;;31.90;77.10;;;;;;4940484;28;209359;-67
2022/08/23 09:41:31;;;;;;;10.32;2.92;;;31.80;74.70;;;;;;4956915;28;259379;-66
2022/08/23 09:44:00;;;;;;;10.82;2.85;;;32.00;76.00;;;;;;4933047;28;209866;-67
2022/08/23 09:46:30;;;;;;;8.18;2.42;;;32.30;74.10;;;;;;4955219;28;265092;-67
2022/08/23 09:48:58;;;;;;;8.90;2.42;;;32.50;73.40;;;;;;4935104;28;207343;-67
2022/08/23 09:51:35;;;;;;;9.45;2.50;;;32.50;73.10;;;;;;4959391;28;269998;-67
2022/08/23 09:54:12;;;;;;;9.57;2.80;;;32.80;71.70;;;;;;4932275;28;207795;-67
2022/08/23 09:56:43;;;;;;;8.57;2.28;;;33.10;71.50;;;;;;4950573;28;270997;-67
2022/08/23 09:59:24;;;;;;;9.30;2.60;;;33.10;71.30;;;;;;4941152;28;207357;-66
2022/08/23 10:01:54;;;;;;;8.25;2.22;;;33.50;71.10;;;;;;4944048;28;263198;-67
2022/08/23 10:04:38;;;;;;;10.38;2.50;;;33.80;71.70;;;;;;4929224;28;210729;-66
2022/08/23 10:07:42;;;;;;;7.55;2.08;;;34.20;70.50;;;;;;4959116;28;255926;-66
2022/08/23 10:10:45;;;;;;;8.07;2.33;;;34.70;68.90;;;;;;4936870;28;178063;-66
2022/08/23 10:13:12;;;;;;;8.05;2.13;;;34.80;67.00;;;;;;4920040;28;269445;-66
2022/08/23 10:15:59;;;;;;;11.25;2.58;;;35.00;67.20;;;;;;4977598;28;20055;-67
2022/08/23 10:18:38;;;;;;;8.32;2.10;;;35.30;64.20;;;;;;4885287;28;206004;-67
2022/08/23 10:21:22;;;;;;;13.05;2.20;;;35.30;60.50;;;;;;4955942;28;264141;-67
2022/08/23 10:24:14;;;;;;;8.85;2.15;;;35.20;64.30;;;;;;4935836;28;210053;-67
2022/08/23 10:30:14;;;;;;;9.38;1.95;;;35.40;61.50;;;;;;4936986;28;206300;-67
2022/08/23 10:32:43;;;;;;;8.88;1.95;;;35.40;62.50;;;;;;4971270;28;184481;-67
2022/08/23 10:35:15;;;;;;;8.93;2.10;;;35.60;62.10;;;;;;4941088;28;206404;-67
2022/08/23 10:37:55;;;;;;;8.20;2.22;;;35.90;62.10;;;;;;4956625;28;94300;-67
2022/08/23 10:40:24;;;;;;;;;;;36.20;61.50;;;;;;4922535;28;207258;-68
2022/08/23 10:43:12;;;;;;;9.02;2.13;;;36.30;57.30;;;;;;4943520;28;269549;-67
2022/08/23 10:45:42;;;;;;;9.23;2.10;;;36.40;60.30;;;;;;4959752;28;210183;-68
2022/08/23 10:48:28;;;;;;;8.82;2.38;;;36.80;59.00;;;;;;4922374;28;262798;-66
2022/08/23 10:51:02;;;;;;;9.93;2.20;;;37.00;57.40;;;;;;4958975;28;20085;-67
2022/08/23 10:53:36;;;;;;;8.90;2.33;;;36.80;57.10;;;;;;4909665;28;206283;-67
2022/08/23 10:56:06;;;;;;;8.73;2.10;;;36.80;56.40;;;;;;4931135;28;272376;-66
2022/08/23 10:58:39;;;;;;;9.45;1.98;;;36.80;56.50;;;;;;4925379;28;209510;-66
2022/08/23 11:01:08;;;;;;;9.23;2.20;;;37.00;56.50;;;;;;4940732;28;256727;-67
2022/08/23 11:03:43;;;;;;;8.88;2.45;;;37.40;56.60;;;;;;4936149;28;210224;-67
2022/08/23 11:06:24;;;;;;;7.60;2.03;;;37.70;55.00;;;;;;4945999;28;268730;-67
2022/08/23 11:09:00;;;;;;;11.50;2.30;;;38.10;55.80;;;;;;4939150;28;207280;-66
2022/08/23 11:11:39;;;;;;;9.18;2.15;;;38.50;55.30;;;;;;4955466;28;277055;-68
2022/08/23 11:14:09;;;;;;;7.18;1.95;;;38.60;53.00;;;;;;4944071;28;153066;-69
2022/08/23 11:16:39;;;;;;;7.53;2.10;;;38.60;52.90;;;;;;4960520;28;254324;-68
2022/08/23 11:19:12;;;;;;;8.95;2.10;;;38.90;53.10;;;;;;4942658;28;206181;-69
2022/08/23 11:21:40;;;;;;;8.85;2.10;;;38.60;52.10;;;;;;4953914;28;258486;-67
2022/08/23 11:24:28;;;;;;;9.98;2.10;;;38.50;49.10;;;;;;4914530;28;206746;-68
2022/08/23 11:26:54;;;;;;;10.55;2.08;;;37.90;48.80;;;;;;4950146;28;259350;-68
2022/08/23 11:29:23;;;;;;;9.35;2.30;;;37.50;51.10;;;;;;4936694;28;209566;-69
2022/08/23 11:32:15;;;;;;;10.85;2.22;;;37.70;52.50;;;;;;4962294;28;274332;-69
2022/08/23 11:35:13;;;;;;;10.40;2.00;;;37.90;50.50;;;;;;4920758;28;206513;-68
2022/08/23 11:37:55;;;;;;;7.50;1.85;;;38.30;51.40;;;;;;4958327;28;265362;-69
2022/08/23 11:40:54;;;;;;;8.40;2.10;;;38.50;47.60;;;;;;4925485;28;209733;-67
2022/08/23 11:43:32;;;;;;;8.05;2.03;;;38.00;48.80;;;;;;4904952;28;266047;-67
2022/08/23 11:46:19;;;;;;;10.48;2.20;;;38.10;48.70;;;;;;4957606;28;273171;-67
2022/08/23 11:48:52;;;;;;;8.23;1.98;;;38.50;50.00;;;;;;4944093;28;207708;-67
2022/08/23 11:51:27;;;;;;;8.60;1.70;;;38.50;48.70;;;;;;4956093;28;249758;-68
2022/08/23 11:54:01;;;;;;;9.15;2.20;;;38.60;48.30;;;;;;4928501;28;206768;-67
2022/08/23 11:56:27;;;;;;;6.93;1.98;;;38.70;47.10;;;;;;4953479;28;90869;-67
2022/08/23 11:59:11;;;;;;;9.18;2.05;;;38.90;47.70;;;;;;4936540;28;207389;-67
2022/08/23 12:01:39;;;;;;;6.40;1.80;;;38.90;47.60;;;;;;4937235;28;143972;-67
2022/08/23 12:04:13;;;;;;;8.63;1.88;;;38.70;48.80;;;;;;4928875;28;206194;-68
2022/08/23 12:06:47;;;;;;;9.32;2.20;;;38.90;48.40;;;;;;4959502;28;261661;-67
2022/08/23 12:09:34;;;;;;;9.20;2.00;;;39.30;47.60;;;;;;4937863;28;207253;-68
2022/08/23 12:12:01;;;;;;;7.65;1.80;;;39.60;46.20;;;;;;4953448;28;263699;-68
2022/08/23 12:14:29;;;;;;;7.55;1.83;;;39.20;46.20;;;;;;4948172;28;104490;-67
2022/08/23 12:17:17;;;;;;;9.73;2.20;;;38.90;46.20;;;;;;4960682;28;253672;-68
2022/08/23 12:20:04;;;;;;;8.98;2.20;;;38.70;46.50;;;;;;4920806;28;210377;-68
2022/08/23 12:23:01;;;;;;;7.57;1.70;;;38.50;46.30;;;;;;4945770;28;227343;-67
2022/08/23 12:25:30;;;;;;;7.70;2.30;;;38.90;46.70;;;;;;4910009;28;206410;-68
2022/08/23 12:28:18;;;;;;;7.05;1.80;;;39.00;46.80;;;;;;4904149;28;208399;-68
2022/08/23 12:31:21;;;;;;;8.13;2.15;;;39.20;46.80;;;;;;4940981;28;20051;-67
2022/08/23 12:33:56;;;;;;;10.35;1.90;;;39.10;44.30;;;;;;4901738;28;207840;-68
2022/08/23 12:36:37;;;;;;;10.68;2.10;;;38.80;44.50;;;;;;4945188;28;39770;-67
2022/08/23 12:39:06;;;;;;;7.30;1.90;;;38.70;44.80;;;;;;4920512;28;210045;-68
2022/08/23 12:41:48;;;;;;;;;;;38.80;45.80;;;;;;4945956;28;205443;-69
2022/08/23 12:44:20;;;;;;;9.27;1.90;;;39.10;44.70;;;;;;4905395;28;208339;-69
2022/08/23 12:46:49;;;;;;;11.38;2.00;;;39.30;45.90;;;;;;4942471;28;240853;-69
2022/08/23 12:49:34;;;;;;;11.43;2.20;;;39.80;46.70;;;;;;4916474;28;209866;-69
2022/08/23 12:52:11;;;;;;;8.55;2.13;;;40.50;45.70;;;;;;4955314;28;73315;-69
2022/08/23 12:54:43;;;;;;;8.52;2.00;;;40.40;42.20;;;;;;4923442;28;206515;-69
2022/08/23 12:57:39;;;;;;;10.05;1.95;;;39.80;43.80;;;;;;4956595;28;262720;-69
2022/08/23 13:00:37;;;;;;;7.18;1.85;;;39.50;43.20;;;;;;4935655;28;208925;-69
2022/08/23 13:03:14;;;;;;;10.90;2.13;;;39.10;44.20;;;;;;4912140;28;252726;-68
2022/08/23 13:05:55;;;;;;;9.45;2.00;;;38.40;43.80;;;;;;4978071;28;20050;-68